| Record Date MM/DD/YYYY | Record Time HH:MM:SS | Record Julian Date NNN day of the year | Air Temperature Max (Degrees Fahrenheit F) | Time Max Air Temperature HH:MM:SS This is the time of max air temp for the prior hour interval listed for record [Time]. | Air Temperature Min (Degrees Fahrenheit F) | Time Min Air Temperature HH:MM:SS This is the time of min air temp for the prior hour interval listed for record [Time]. | Air Temperature Observed (Degrees Fahrenheit F) This is an instantaneous reading at the record [Time]. | Relative Humidity Max (Percent) | Time Max Relative Humidity HH:MM:SS This is the time of max relative humidity for the prior hour interval listed for record [Time]. | Relative Humidity Min (Percent) | Time Min Relative Humidity HH:MM:SS This is the time of min relative humidity for the prior hour interval listed for record [Time]. | Relative Humidity Observed (Percent) This is an instantaneous reading at the record [Time]. | Precipitation (Inches n.nn) rain fall that occurred during the prior hour interval listed for record [Time]. | Wind Speed (Miles Per Hour) Resultant Speed that occurred during the prior hour interval listed for record [Time]. | Wind Direction (Degrees) Resultant Direction that occurred during the prior hour interval listed for record [Time]. | Solar Radiation (Langley's) that occurred during the prior hour interval listed for record [Time]. | Soil Temperature Average at 2 inch depth (Degrees Fahrenheit F) that occurred during the prior hour interval listed for record [Time]. | Soil Temperature Observed at 2 inch depth (Degrees Fahrenheit F) This is an instantaneous reading at the record [Time]. | Soil Temperature Average at 4 inch depth (Degrees Fahrenheit F) that occurred during the prior hour interval listed for record [Time]. | Soil Temperature Observed at 4 inch depth (Degrees Fahrenheit F) This is an instantaneous reading at the record [Time]. |
|---|---|---|---|---|---|---|---|---|---|---|---|---|---|---|---|---|---|---|---|---|
| 05/01/2026 | 0:00:00 | 121 | 53 | 23:00:00 | 52 | 23:41:02 | 52 | 89 | 23:12:05 | 81 | 23:28:01 | 84.4 | 0 | 0.4 | 29 | 0 | 64 | 64 | 65 | 65 |
| 05/01/2026 | 1:00:00 | 121 | 53 | 0:58:02 | 52 | 0:38:00 | 53 | 89 | 0:46:04 | 83 | 0:04:04 | 88.5 | 0 | 0.1 | 330 | 0 | 64 | 64 | 65 | 65 |
| 05/01/2026 | 2:00:00 | 121 | 53 | 1:01:04 | 52 | 1:53:01 | 52 | 91 | 1:58:01 | 88 | 1:04:00 | 90.4 | 0 | 0.5 | 6 | 0 | 64 | 63 | 65 | 64 |
| 05/01/2026 | 3:00:00 | 121 | 52 | 2:00:00 | 50 | 2:29:04 | 50 | 94 | 2:58:04 | 90 | 2:02:02 | 93.4 | 0 | 0.8 | 9 | 0 | 63 | 63 | 64 | 64 |
| 05/01/2026 | 4:00:00 | 121 | 51 | 3:44:00 | 50 | 3:03:01 | 50 | 95 | 3:16:00 | 92 | 3:50:04 | 92.2 | 0 | 1.1 | 7 | 0 | 63 | 63 | 64 | 64 |
| 05/01/2026 | 5:00:00 | 121 | 51 | 4:56:00 | 50 | 4:00:05 | 51 | 92 | 4:04:02 | 88 | 4:51:05 | 89.4 | 0 | 1.5 | 355 | 0 | 63 | 63 | 64 | 64 |
| 05/01/2026 | 6:00:00 | 121 | 52 | 5:59:02 | 51 | 5:11:03 | 52 | 90 | 5:00:03 | 84 | 5:55:02 | 84.5 | 0 | 1.3 | 19 | 2 | 63 | 63 | 64 | 64 |
| 05/01/2026 | 7:00:00 | 121 | 54 | 6:59:05 | 52 | 6:00:02 | 54 | 86 | 6:37:02 | 78 | 6:58:05 | 79.6 | 0 | 2.0 | 8 | 7 | 63 | 63 | 64 | 63 |
| 05/01/2026 | 8:00:00 | 121 | 56 | 7:59:00 | 54 | 7:00:03 | 56 | 80 | 7:13:02 | 73 | 7:59:01 | 73.85 | 0 | 3.5 | 21 | 15 | 63 | 63 | 63 | 63 |
| 05/01/2026 | 9:00:00 | 121 | 59 | 8:52:04 | 56 | 8:00:00 | 59 | 76 | 8:07:04 | 68 | 9:00:00 | 67.79 | 0 | 4.1 | 28 | 23 | 63 | 63 | 63 | 64 |
| 05/01/2026 | 10:00:00 | 121 | 61 | 9:55:02 | 59 | 9:00:01 | 61 | 72 | 9:36:05 | 63 | 9:58:00 | 67.78 | 0 | 4.3 | 20 | 28 | 63 | 63 | 64 | 64 |
| 05/01/2026 | 11:00:00 | 121 | 62 | 10:46:01 | 61 | 10:00:00 | 62 | 68 | 10:14:04 | 62 | 10:40:03 | 65.11 | 0 | 5.1 | 18 | 35 | 63 | 64 | 64 | 64 |
| 05/01/2026 | 12:00:00 | 121 | 64 | 11:48:03 | 62 | 11:04:03 | 64 | 67 | 11:02:05 | 49 | 11:55:05 | 52.06 | 0 | 6.6 | 24 | 38 | 64 | 64 | 64 | 64 |
| 05/01/2026 | 13:00:00 | 121 | 65 | 12:59:00 | 64 | 12:01:05 | 65 | 58 | 12:13:04 | 49 | 12:31:04 | 52.19 | 0 | 5.3 | 18 | 42 | 64 | 64 | 64 | 64 |
| 05/01/2026 | 14:00:00 | 121 | 66 | 13:40:03 | 65 | 13:24:03 | 65 | 57 | 13:12:04 | 47 | 13:43:04 | 49.76 | 0 | 5.7 | 15 | 46 | 65 | 65 | 65 | 65 |
| 05/01/2026 | 15:00:00 | 121 | 66 | 14:19:02 | 64 | 14:59:02 | 64 | 55 | 14:17:05 | 47 | 14:16:01 | 50.62 | 0 | 6.3 | 22 | 41 | 65 | 65 | 65 | 65 |
| 05/01/2026 | 16:00:00 | 121 | 66 | 15:28:04 | 64 | 15:01:04 | 65 | 55 | 15:34:03 | 46 | 15:39:04 | 51.79 | 0 | 5.5 | 17 | 37 | 65 | 65 | 65 | 65 |
| 05/01/2026 | 17:00:00 | 121 | 66 | 16:42:02 | 64 | 16:59:04 | 64 | 59 | 16:06:04 | 50 | 16:27:03 | 54.92 | 0 | 5.1 | 24 | 24 | 65 | 65 | 65 | 65 |
| 05/01/2026 | 18:00:00 | 121 | 64 | 17:00:00 | 62 | 17:58:01 | 62 | 62 | 17:44:00 | 53 | 17:11:02 | 59.94 | 0 | 3.7 | 31 | 8 | 65 | 65 | 65 | 65 |
| 05/01/2026 | 19:00:00 | 121 | 62 | 18:00:01 | 59 | 18:56:00 | 59 | 68 | 18:53:00 | 59 | 18:07:02 | 65.11 | 0 | 1.6 | 18 | 1 | 65 | 64 | 65 | 65 |
| 05/01/2026 | 20:00:00 | 121 | 59 | 19:00:04 | 58 | 19:59:02 | 58 | 74 | 19:31:05 | 64 | 19:05:01 | 70.12 | 0 | 1.8 | 358 | 0 | 64 | 64 | 65 | 65 |
| 05/01/2026 | 21:00:00 | 121 | 58 | 20:35:03 | 57 | 20:50:05 | 57 | 72 | 20:01:02 | 64 | 20:53:00 | 65.36 | 0 | 3.7 | 22 | 0 | 64 | 64 | 65 | 64 |
| 05/01/2026 | 22:00:00 | 121 | 58 | 21:03:01 | 56 | 21:58:01 | 57 | 68 | 21:42:04 | 63 | 21:05:01 | 67.61 | 0 | 2.7 | 14 | 0 | 64 | 63 | 64 | 64 |
| 05/01/2026 | 23:00:00 | 121 | 57 | 22:00:00 | 56 | 22:24:03 | 56 | 69 | 22:18:05 | 62 | 22:55:00 | 63.2 | 0 | 2.8 | 15 | 0 | 63 | 63 | 64 | 64 |
| 05/02/2026 | 0:00:00 | 122 | 56 | 23:03:01 | 55 | 23:51:01 | 55 | 67 | 23:51:02 | 60 | 23:14:01 | 65.15 | 0 | 1.6 | 48 | 0 | 63 | 63 | 64 | 64 |
| 05/02/2026 | 1:00:00 | 122 | 55 | 0:00:01 | 52 | 0:59:03 | 52 | 68 | 0:12:00 | 63 | 0:50:04 | 65.8 | 0 | 2.3 | 39 | 0 | 63 | 63 | 64 | 63 |
| 05/02/2026 | 2:00:00 | 122 | 53 | 1:15:00 | 50 | 1:55:00 | 50 | 75 | 1:54:03 | 63 | 1:11:02 | 73.43 | 0 | 1.6 | 13 | 0 | 62 | 62 | 63 | 63 |
| 05/02/2026 | 3:00:00 | 122 | 50 | 2:00:00 | 46 | 2:59:01 | 46 | 86 | 2:58:02 | 72 | 2:01:05 | 85.5 | 0 | 0.6 | 16 | 0 | 62 | 62 | 63 | 63 |
| 05/02/2026 | 4:00:00 | 122 | 47 | 3:09:02 | 44 | 3:53:02 | 44 | 92 | 3:59:02 | 83 | 3:09:01 | 92 | 0 | 1.1 | 21 | 0 | 61 | 61 | 63 | 62 |
| 05/02/2026 | 5:00:00 | 122 | 44 | 4:00:00 | 43 | 4:33:02 | 43 | 95 | 5:00:00 | 92 | 4:03:03 | 94.8 | 0 | 0.2 | 25 | 0 | 61 | 61 | 62 | 62 |
| 05/02/2026 | 6:00:00 | 122 | 46 | 6:00:00 | 42 | 5:27:00 | 46 | 96 | 5:44:01 | 95 | 5:04:02 | 95 | 0 | 0.2 | 338 | 5 | 60 | 60 | 62 | 62 |
| 05/02/2026 | 7:00:00 | 122 | 52 | 6:59:05 | 46 | 6:00:00 | 52 | 95 | 6:00:01 | 78 | 6:51:04 | 80.4 | 0 | 0.7 | 9 | 19 | 60 | 60 | 62 | 61 |
| 05/02/2026 | 8:00:00 | 122 | 61 | 7:57:00 | 52 | 7:04:04 | 60 | 81 | 7:07:05 | 60 | 7:55:02 | 61.27 | 0 | 0.9 | 340 | 39 | 60 | 61 | 61 | 62 |
| 05/02/2026 | 9:00:00 | 122 | 65 | 8:57:00 | 59 | 8:07:00 | 65 | 66 | 8:02:05 | 39 | 8:53:05 | 41.33 | 0 | 1.6 | 340 | 55 | 61 | 62 | 62 | 62 |
| 05/02/2026 | 10:00:00 | 122 | 65 | 9:29:03 | 64 | 9:20:01 | 65 | 52 | 9:13:00 | 36 | 9:42:00 | 40.99 | 0 | 5.1 | 319 | 69 | 63 | 64 | 63 | 63 |
| 05/02/2026 | 11:00:00 | 122 | 68 | 10:57:04 | 65 | 10:00:00 | 67 | 50 | 10:01:01 | 34 | 10:55:03 | 40.65 | 0 | 6.3 | 318 | 78 | 65 | 66 | 64 | 64 |
| 05/02/2026 | 12:00:00 | 122 | 69 | 11:35:01 | 67 | 11:46:01 | 68 | 52 | 11:13:01 | 35 | 11:35:02 | 42.54 | 0 | 7.5 | 304 | 80 | 66 | 67 | 65 | 65 |
| 05/02/2026 | 13:00:00 | 122 | 70 | 12:27:03 | 67 | 12:50:03 | 68 | 51 | 12:01:00 | 34 | 12:48:02 | 37.48 | 0 | 8.0 | 316 | 74 | 68 | 68 | 66 | 66 |
| 05/02/2026 | 14:00:00 | 122 | 71 | 13:59:02 | 67 | 13:02:02 | 71 | 49 | 13:13:00 | 34 | 13:40:00 | 38.29 | 0 | 9.3 | 310 | 70 | 69 | 69 | 67 | 67 |
| 05/02/2026 | 15:00:00 | 122 | 71 | 14:00:05 | 67 | 14:55:01 | 67 | 47 | 14:06:02 | 33 | 14:28:02 | 41.65 | 0 | 8.7 | 317 | 47 | 69 | 69 | 67 | 67 |
| 05/02/2026 | 16:00:00 | 122 | 70 | 15:27:05 | 67 | 15:02:04 | 68 | 48 | 15:38:05 | 36 | 15:43:04 | 39.38 | 0 | 8.5 | 321 | 40 | 68 | 68 | 67 | 67 |
| 05/02/2026 | 17:00:00 | 122 | 69 | 16:33:05 | 68 | 16:03:02 | 68 | 45 | 16:10:01 | 35 | 16:29:04 | 38.77 | 0 | 8.4 | 319 | 31 | 68 | 67 | 67 | 67 |
| 05/02/2026 | 18:00:00 | 122 | 69 | 17:06:05 | 67 | 17:59:03 | 67 | 44 | 17:32:01 | 37 | 17:18:02 | 42.45 | 0 | 5.6 | 334 | 15 | 67 | 67 | 67 | 66 |
| 05/02/2026 | 19:00:00 | 122 | 67 | 18:00:02 | 62 | 18:56:00 | 62 | 53 | 18:47:05 | 41 | 18:04:01 | 50.89 | 0 | 2.0 | 339 | 3 | 66 | 66 | 66 | 66 |
| 05/02/2026 | 20:00:00 | 122 | 62 | 19:00:04 | 55 | 19:59:02 | 55 | 74 | 20:00:00 | 51 | 19:00:01 | 74.11 | 0 | 0.9 | 235 | 0 | 65 | 65 | 66 | 65 |
| 05/02/2026 | 21:00:00 | 122 | 55 | 20:00:00 | 53 | 20:59:02 | 53 | 82 | 21:00:00 | 70 | 20:14:01 | 82.3 | 0 | 0.0 | 0 | 0 | 65 | 64 | 65 | 65 |
| 05/02/2026 | 22:00:00 | 122 | 53 | 21:00:01 | 50 | 21:52:03 | 50 | 88 | 21:20:04 | 82 | 21:00:00 | 85.2 | 0 | 0.5 | 114 | 0 | 64 | 63 | 65 | 64 |
| 05/02/2026 | 23:00:00 | 122 | 53 | 22:59:00 | 50 | 22:07:02 | 53 | 87 | 22:05:04 | 66 | 22:58:05 | 66.35 | 0 | 1.6 | 51 | 0 | 63 | 63 | 64 | 64 |
| 05/03/2026 | 0:00:00 | 123 | 53 | 23:14:02 | 51 | 23:54:00 | 51 | 71 | 23:22:04 | 66 | 23:13:04 | 69.9 | 0 | 1.4 | 71 | 0 | 62 | 62 | 63 | 63 |
| 05/03/2026 | 1:00:00 | 123 | 52 | 0:16:02 | 48 | 0:59:04 | 48 | 79 | 0:59:00 | 69 | 0:16:02 | 78.86 | 0 | 1.0 | 47 | 0 | 62 | 62 | 63 | 63 |
| 05/03/2026 | 2:00:00 | 123 | 49 | 1:05:03 | 45 | 1:52:01 | 46 | 89 | 1:59:05 | 77 | 1:05:01 | 88.7 | 0 | 0.3 | 24 | 0 | 61 | 61 | 63 | 62 |
| 05/03/2026 | 3:00:00 | 123 | 46 | 2:02:01 | 44 | 2:31:02 | 44 | 93 | 2:57:02 | 87 | 2:13:01 | 92.9 | 0 | 0.4 | 344 | 0 | 61 | 61 | 62 | 62 |
| 05/03/2026 | 4:00:00 | 123 | 44 | 3:01:05 | 43 | 3:59:05 | 43 | 95 | 3:59:04 | 93 | 3:00:00 | 95 | 0 | 0.3 | 212 | 0 | 60 | 60 | 62 | 62 |
| 05/03/2026 | 5:00:00 | 123 | 43 | 4:00:00 | 42 | 4:44:02 | 42 | 97 | 4:48:00 | 95 | 4:03:02 | 96.4 | 0 | 0.2 | 200 | 0 | 60 | 60 | 61 | 61 |
| 05/03/2026 | 6:00:00 | 123 | 45 | 6:00:00 | 41 | 5:25:02 | 45 | 98 | 5:37:03 | 96 | 5:03:04 | 96.6 | 0 | 0.1 | 243 | 5 | 59 | 59 | 61 | 61 |
| 05/03/2026 | 7:00:00 | 123 | 54 | 6:58:00 | 45 | 6:00:02 | 54 | 97 | 6:07:00 | 72 | 6:58:04 | 73.08 | 0 | 3.4 | 124 | 21 | 59 | 59 | 61 | 61 |
| 05/03/2026 | 8:00:00 | 123 | 58 | 8:00:00 | 54 | 7:00:03 | 58 | 74 | 7:02:03 | 57 | 7:50:02 | 60.08 | 0 | 6.1 | 140 | 39 | 60 | 60 | 61 | 61 |
| 05/03/2026 | 9:00:00 | 123 | 62 | 8:59:02 | 58 | 8:00:00 | 62 | 61 | 8:02:04 | 50 | 8:46:05 | 52.21 | 0 | 7.3 | 141 | 55 | 61 | 61 | 61 | 61 |
| 05/03/2026 | 10:00:00 | 123 | 66 | 9:54:01 | 62 | 9:02:00 | 65 | 54 | 9:05:04 | 44 | 9:50:00 | 46.16 | 0 | 6.4 | 162 | 69 | 62 | 63 | 62 | 62 |
| 05/03/2026 | 11:00:00 | 123 | 69 | 10:59:00 | 65 | 10:06:04 | 69 | 51 | 10:07:00 | 37 | 10:57:02 | 39.44 | 0 | 5.8 | 188 | 79 | 64 | 65 | 63 | 63 |
| 05/03/2026 | 12:00:00 | 123 | 72 | 11:57:02 | 69 | 11:04:02 | 71 | 43 | 11:21:03 | 33 | 11:57:04 | 34.49 | 0 | 5.9 | 209 | 84 | 66 | 67 | 64 | 65 |
| 05/03/2026 | 13:00:00 | 123 | 73 | 12:40:04 | 71 | 12:54:04 | 72 | 43 | 12:54:05 | 31 | 12:51:00 | 33.36 | 0 | 6.5 | 220 | 83 | 68 | 69 | 65 | 66 |
| 05/03/2026 | 14:00:00 | 123 | 74 | 13:29:04 | 72 | 13:04:02 | 74 | 44 | 13:36:05 | 30 | 13:18:02 | 34.59 | 0 | 6.4 | 221 | 77 | 69 | 70 | 67 | 67 |
| 05/03/2026 | 15:00:00 | 123 | 75 | 14:14:02 | 73 | 14:05:03 | 74 | 43 | 14:55:05 | 30 | 14:04:05 | 34.56 | 0 | 5.7 | 227 | 66 | 70 | 70 | 67 | 68 |
| 05/03/2026 | 16:00:00 | 123 | 75 | 15:35:01 | 73 | 15:19:03 | 74 | 41 | 15:17:02 | 31 | 15:03:04 | 35.17 | 0 | 6.4 | 241 | 52 | 70 | 70 | 68 | 68 |
| 05/03/2026 | 17:00:00 | 123 | 75 | 16:57:00 | 74 | 16:17:04 | 75 | 39 | 16:51:00 | 32 | 16:16:05 | 34.39 | 0 | 6.8 | 224 | 34 | 69 | 69 | 68 | 68 |
| 05/03/2026 | 18:00:00 | 123 | 75 | 17:01:02 | 73 | 17:59:01 | 73 | 44 | 17:57:05 | 34 | 17:05:02 | 43.25 | 0 | 4.2 | 210 | 16 | 69 | 68 | 67 | 67 |
| 05/03/2026 | 19:00:00 | 123 | 73 | 18:00:01 | 64 | 18:59:05 | 64 | 68 | 18:57:05 | 41 | 18:01:00 | 65.46 | 0 | 1.5 | 199 | 3 | 68 | 67 | 67 | 67 |
| 05/03/2026 | 20:00:00 | 123 | 64 | 19:00:01 | 61 | 19:48:00 | 61 | 69 | 19:12:03 | 59 | 19:23:05 | 63.6 | 0 | 1.0 | 184 | 0 | 67 | 66 | 67 | 66 |
| 05/03/2026 | 21:00:00 | 123 | 61 | 20:08:01 | 60 | 20:21:00 | 61 | 65 | 20:18:02 | 61 | 20:38:00 | 62.26 | 0 | 1.8 | 163 | 0 | 66 | 65 | 66 | 66 |
| 05/03/2026 | 22:00:00 | 123 | 61 | 21:00:00 | 58 | 21:44:04 | 58 | 72 | 21:45:03 | 62 | 21:00:01 | 70.28 | 0 | 2.5 | 179 | 0 | 65 | 65 | 65 | 65 |
| 05/03/2026 | 23:00:00 | 123 | 59 | 22:53:01 | 58 | 22:00:04 | 59 | 71 | 22:41:03 | 67 | 22:52:05 | 68.27 | 0 | 3.2 | 182 | 0 | 64 | 64 | 65 | 65 |
| 05/04/2026 | 0:00:00 | 124 | 60 | 23:52:01 | 58 | 23:34:00 | 59 | 71 | 23:32:04 | 67 | 23:52:00 | 68.93 | 0 | 3.4 | 186 | 0 | 64 | 64 | 65 | 64 |
| 05/04/2026 | 1:00:00 | 124 | 60 | 0:43:01 | 58 | 0:13:05 | 60 | 70 | 0:13:03 | 66 | 0:42:05 | 66.46 | 0 | 3.6 | 188 | 0 | 64 | 63 | 64 | 64 |
| 05/04/2026 | 2:00:00 | 124 | 61 | 1:33:01 | 60 | 1:00:01 | 60 | 67 | 1:54:03 | 65 | 1:34:00 | 66.8 | 0 | 4.8 | 197 | 0 | 63 | 63 | 64 | 64 |
| 05/04/2026 | 3:00:00 | 124 | 60 | 2:03:00 | 59 | 2:57:03 | 59 | 70 | 2:59:00 | 66 | 2:02:05 | 69.95 | 0 | 4.3 | 191 | 0 | 63 | 63 | 64 | 64 |
| 05/04/2026 | 4:00:00 | 124 | 59 | 3:01:02 | 57 | 3:44:05 | 58 | 75 | 3:45:00 | 70 | 3:00:05 | 73.95 | 0 | 3.7 | 177 | 0 | 63 | 63 | 63 | 63 |
| 05/04/2026 | 5:00:00 | 124 | 58 | 4:04:04 | 57 | 4:51:01 | 58 | 78 | 4:51:00 | 74 | 4:00:03 | 75.96 | 0 | 3.8 | 185 | 0 | 62 | 62 | 63 | 63 |
| 05/04/2026 | 6:00:00 | 124 | 59 | 5:48:04 | 57 | 5:13:04 | 59 | 78 | 5:16:04 | 75 | 5:48:00 | 75.58 | 0 | 4.3 | 194 | 3 | 62 | 62 | 63 | 63 |
| 05/04/2026 | 7:00:00 | 124 | 64 | 6:53:03 | 59 | 6:01:01 | 64 | 77 | 6:13:02 | 68 | 6:57:00 | 69.2 | 0 | 5.0 | 194 | 19 | 62 | 62 | 63 | 63 |
| 05/04/2026 | 8:00:00 | 124 | 68 | 8:00:00 | 64 | 7:02:01 | 68 | 71 | 7:04:05 | 62 | 7:58:01 | 63.27 | 0 | 6.7 | 204 | 36 | 62 | 63 | 63 | 63 |
| 05/04/2026 | 9:00:00 | 124 | 71 | 8:57:03 | 68 | 8:02:02 | 71 | 64 | 8:12:02 | 57 | 8:58:00 | 58.31 | 0 | 8.8 | 221 | 55 | 63 | 64 | 63 | 64 |
| 05/04/2026 | 10:00:00 | 124 | 74 | 9:59:03 | 70 | 9:02:03 | 74 | 61 | 9:17:01 | 53 | 9:59:04 | 54.18 | 0 | 9.2 | 217 | 65 | 65 | 66 | 64 | 65 |
| 05/04/2026 | 11:00:00 | 124 | 76 | 10:53:02 | 73 | 10:18:03 | 76 | 57 | 10:09:04 | 48 | 10:50:05 | 52.02 | 0 | 10.3 | 227 | 75 | 66 | 67 | 65 | 66 |
| 05/04/2026 | 12:00:00 | 124 | 79 | 11:56:01 | 76 | 11:05:02 | 78 | 52 | 11:00:01 | 42 | 11:56:02 | 46.37 | 0 | 11.7 | 226 | 82 | 68 | 69 | 66 | 67 |
| 05/04/2026 | 13:00:00 | 124 | 80 | 12:31:02 | 78 | 12:00:02 | 79 | 48 | 12:01:00 | 37 | 12:52:03 | 41.21 | 0 | 12.1 | 206 | 84 | 70 | 70 | 67 | 68 |
| 05/04/2026 | 14:00:00 | 124 | 80 | 13:03:01 | 77 | 13:13:03 | 79 | 44 | 13:16:02 | 36 | 13:31:05 | 39.06 | 0 | 11.8 | 214 | 71 | 71 | 71 | 68 | 69 |
| 05/04/2026 | 15:00:00 | 124 | 81 | 14:25:04 | 78 | 14:48:02 | 79 | 42 | 14:49:04 | 36 | 14:31:04 | 40.2 | 0 | 11.0 | 199 | 65 | 71 | 71 | 69 | 69 |
| 05/04/2026 | 16:00:00 | 124 | 80 | 15:10:04 | 77 | 15:58:00 | 78 | 42 | 15:59:05 | 37 | 15:42:00 | 40.62 | 0 | 11.8 | 214 | 50 | 71 | 70 | 69 | 69 |
| 05/04/2026 | 17:00:00 | 124 | 78 | 16:20:01 | 76 | 16:55:01 | 76 | 44 | 16:44:01 | 38 | 16:21:01 | 41.17 | 0 | 10.8 | 205 | 27 | 70 | 70 | 69 | 69 |
| 05/04/2026 | 18:00:00 | 124 | 77 | 17:05:02 | 74 | 17:59:03 | 74 | 46 | 17:57:04 | 40 | 17:06:01 | 45.87 | 0 | 8.9 | 203 | 13 | 69 | 69 | 68 | 68 |
| 05/04/2026 | 19:00:00 | 124 | 74 | 18:00:01 | 70 | 18:48:01 | 70 | 54 | 18:47:02 | 45 | 18:11:00 | 53.45 | 0 | 4.9 | 187 | 2 | 69 | 68 | 68 | 68 |
| 05/04/2026 | 20:00:00 | 124 | 70 | 19:00:00 | 66 | 19:57:02 | 66 | 62 | 19:56:04 | 54 | 19:00:00 | 61.28 | 0 | 3.1 | 168 | 0 | 68 | 67 | 68 | 67 |
| 05/04/2026 | 21:00:00 | 124 | 66 | 20:03:00 | 63 | 20:56:01 | 63 | 67 | 20:54:03 | 61 | 20:01:05 | 66.35 | 0 | 2.9 | 164 | 0 | 67 | 67 | 67 | 67 |
| 05/04/2026 | 22:00:00 | 124 | 64 | 21:46:02 | 63 | 21:23:02 | 64 | 67 | 21:22:05 | 64 | 21:44:02 | 64.94 | 0 | 3.6 | 174 | 0 | 66 | 66 | 67 | 66 |
| 05/04/2026 | 23:00:00 | 124 | 65 | 22:28:04 | 63 | 22:59:05 | 63 | 66 | 22:59:05 | 62 | 22:32:05 | 66.03 | 0 | 3.7 | 189 | 0 | 66 | 66 | 66 | 66 |
| 05/05/2026 | 0:00:00 | 125 | 63 | 23:00:01 | 61 | 23:58:03 | 61 | 72 | 23:58:04 | 66 | 23:00:00 | 72.17 | 0 | 2.8 | 166 | 0 | 65 | 65 | 66 | 66 |
| 05/05/2026 | 1:00:00 | 125 | 61 | 0:57:02 | 60 | 0:23:02 | 61 | 74 | 0:22:02 | 72 | 0:56:05 | 72.02 | 0 | 3.2 | 171 | 0 | 65 | 65 | 65 | 65 |
| 05/05/2026 | 2:00:00 | 125 | 62 | 1:53:03 | 60 | 1:14:05 | 62 | 74 | 1:14:05 | 71 | 1:53:01 | 71.79 | 0 | 3.9 | 168 | 0 | 65 | 64 | 65 | 65 |
| 05/05/2026 | 3:00:00 | 125 | 62 | 2:32:00 | 61 | 2:10:03 | 62 | 73 | 2:10:02 | 71 | 2:31:03 | 71.96 | 0 | 5.2 | 170 | 0 | 64 | 64 | 65 | 65 |
| 05/05/2026 | 4:00:00 | 125 | 63 | 3:50:03 | 61 | 3:15:03 | 62 | 73 | 3:14:04 | 70 | 3:48:03 | 70.62 | 0 | 6.3 | 183 | 0 | 64 | 64 | 65 | 65 |
| 05/05/2026 | 5:00:00 | 125 | 62 | 4:06:04 | 62 | 4:53:01 | 62 | 73 | 4:55:03 | 71 | 4:01:00 | 72.56 | 0 | 6.4 | 179 | 0 | 64 | 64 | 64 | 64 |
| 05/05/2026 | 6:00:00 | 125 | 62 | 5:59:03 | 61 | 5:19:04 | 62 | 74 | 5:46:05 | 73 | 5:00:01 | 73.59 | 0 | 5.6 | 178 | 2 | 64 | 64 | 64 | 64 |
| 05/05/2026 | 7:00:00 | 125 | 64 | 7:00:00 | 62 | 6:00:01 | 64 | 75 | 6:43:04 | 72 | 6:58:05 | 73.14 | 0 | 5.1 | 172 | 10 | 64 | 64 | 64 | 64 |
| 05/05/2026 | 8:00:00 | 125 | 65 | 7:40:00 | 63 | 7:01:01 | 65 | 73 | 7:59:00 | 71 | 7:07:00 | 73.01 | 0 | 6.6 | 179 | 12 | 64 | 64 | 64 | 64 |
| 05/05/2026 | 9:00:00 | 125 | 65 | 8:59:04 | 65 | 8:00:00 | 65 | 75 | 8:51:05 | 73 | 8:03:04 | 74.79 | 0 | 7.3 | 167 | 7 | 64 | 64 | 64 | 64 |
| 05/05/2026 | 10:00:00 | 125 | 66 | 9:15:01 | 64 | 9:48:04 | 65 | 81 | 9:59:01 | 74 | 9:15:04 | 81 | 0 | 8.3 | 169 | 9 | 64 | 64 | 64 | 64 |
| 05/05/2026 | 11:00:00 | 125 | 68 | 10:59:01 | 65 | 10:00:00 | 68 | 81 | 10:00:03 | 76 | 10:59:05 | 75.93 | 0 | 9.0 | 167 | 22 | 64 | 64 | 64 | 64 |
| 05/05/2026 | 12:00:00 | 125 | 69 | 11:10:02 | 68 | 11:02:03 | 69 | 78 | 11:15:00 | 75 | 11:12:00 | 76.05 | 0 | 9.1 | 160 | 21 | 65 | 65 | 64 | 65 |
| 05/05/2026 | 13:00:00 | 125 | 70 | 12:59:03 | 69 | 12:00:04 | 70 | 77 | 12:06:00 | 74 | 12:31:02 | 74.95 | 0 | 9.1 | 166 | 18 | 65 | 65 | 65 | 65 |
| 05/05/2026 | 14:00:00 | 125 | 71 | 13:26:05 | 69 | 13:51:04 | 70 | 80 | 13:51:00 | 74 | 13:17:03 | 79.19 | 0 | 9.1 | 175 | 17 | 65 | 66 | 65 | 65 |
| 05/05/2026 | 15:00:00 | 125 | 72 | 14:36:05 | 70 | 14:00:01 | 72 | 80 | 14:00:03 | 75 | 14:43:05 | 76.49 | 0 | 8.6 | 176 | 21 | 66 | 66 | 65 | 65 |
| 05/05/2026 | 16:00:00 | 125 | 73 | 15:16:00 | 72 | 15:00:01 | 73 | 77 | 15:50:02 | 74 | 15:08:04 | 76.01 | 0 | 8.4 | 178 | 17 | 66 | 66 | 66 | 66 |
| 05/05/2026 | 17:00:00 | 125 | 73 | 16:05:00 | 71 | 16:59:04 | 71 | 82 | 16:58:05 | 75 | 16:06:05 | 82 | 0 | 7.3 | 185 | 5 | 67 | 67 | 66 | 66 |
| 05/05/2026 | 18:00:00 | 125 | 71 | 17:24:04 | 71 | 17:05:00 | 71 | 83 | 17:15:04 | 79 | 17:59:04 | 78.88 | 0 | 8.0 | 173 | 4 | 67 | 67 | 66 | 66 |
| 05/05/2026 | 19:00:00 | 125 | 71 | 18:00:01 | 70 | 18:40:04 | 71 | 79 | 18:03:02 | 78 | 18:44:00 | 78.28 | 0 | 5.3 | 169 | 1 | 66 | 66 | 66 | 66 |
| 05/05/2026 | 20:00:00 | 125 | 71 | 19:59:01 | 70 | 19:15:05 | 71 | 79 | 19:15:02 | 77 | 19:59:00 | 77.57 | 0 | 5.6 | 167 | 0 | 66 | 66 | 66 | 66 |
| 05/05/2026 | 21:00:00 | 125 | 72 | 20:45:03 | 71 | 20:08:00 | 72 | 78 | 20:07:02 | 77 | 20:45:01 | 77.39 | 0 | 4.9 | 181 | 0 | 66 | 66 | 66 | 66 |
| 05/05/2026 | 22:00:00 | 125 | 72 | 21:37:01 | 71 | 21:29:00 | 71 | 79 | 21:59:04 | 77 | 21:00:03 | 78.84 | 0 | 5.8 | 176 | 0 | 66 | 66 | 66 | 66 |
| 05/05/2026 | 23:00:00 | 125 | 72 | 22:32:03 | 71 | 22:01:05 | 72 | 79 | 22:54:00 | 78 | 22:31:02 | 78.69 | 0 | 6.1 | 177 | 0 | 66 | 66 | 66 | 66 |
| 05/06/2026 | 0:00:00 | 126 | 73 | 23:59:02 | 72 | 23:06:00 | 73 | 79 | 23:17:05 | 78 | 23:47:00 | 78.52 | 0 | 6.4 | 189 | 0 | 66 | 66 | 66 | 66 |
| 05/06/2026 | 1:00:00 | 126 | 74 | 0:13:03 | 73 | 0:00:01 | 74 | 79 | 0:56:03 | 78 | 0:14:02 | 79.17 | 0 | 9.6 | 208 | 0 | 66 | 66 | 66 | 66 |
| 05/06/2026 | 2:00:00 | 126 | 74 | 1:57:01 | 74 | 1:08:01 | 74 | 81 | 1:59:03 | 79 | 1:01:01 | 80.8 | 0 | 10.2 | 204 | 0 | 66 | 66 | 66 | 66 |
| 05/06/2026 | 3:00:00 | 126 | 74 | 2:04:00 | 65 | 2:59:05 | 65 | 88 | 3:00:00 | 80 | 2:47:05 | 87.7 | 0 | 10.7 | 228 | 0 | 66 | 66 | 66 | 66 |
| 05/06/2026 | 4:00:00 | 126 | 65 | 3:00:00 | 57 | 3:59:05 | 57 | 94 | 3:45:05 | 88 | 3:00:00 | 93.1 | 0.02 | 6.7 | 348 | 0 | 66 | 66 | 66 | 66 |
| 05/06/2026 | 5:00:00 | 126 | 57 | 4:00:00 | 57 | 4:25:01 | 57 | 95 | 4:59:02 | 92 | 4:28:00 | 94.7 | 0.39 | 5.0 | 17 | 0 | 66 | 65 | 66 | 66 |
| 05/06/2026 | 6:00:00 | 126 | 58 | 5:50:01 | 57 | 5:04:00 | 57 | 96 | 5:40:00 | 95 | 5:00:01 | 95.7 | 0.01 | 2.3 | 12 | 1 | 65 | 64 | 65 | 65 |
| 05/06/2026 | 7:00:00 | 126 | 58 | 6:01:03 | 56 | 6:55:05 | 56 | 96 | 6:01:04 | 95 | 6:19:02 | 95.1 | 0 | 4.2 | 357 | 3 | 64 | 64 | 65 | 65 |
| 05/06/2026 | 8:00:00 | 126 | 57 | 7:05:02 | 56 | 7:54:02 | 56 | 96 | 8:00:00 | 95 | 7:21:02 | 95.7 | 0 | 4.6 | 5 | 7 | 64 | 64 | 65 | 65 |
| 05/06/2026 | 9:00:00 | 126 | 56 | 8:00:01 | 54 | 8:55:01 | 54 | 96 | 8:26:03 | 95 | 8:40:03 | 95.6 | 0.23 | 5.9 | 3 | 7 | 64 | 64 | 65 | 64 |
| 05/06/2026 | 10:00:00 | 126 | 55 | 9:58:04 | 54 | 9:08:04 | 55 | 96 | 9:25:05 | 94 | 10:00:00 | 94.2 | 0.05 | 4.6 | 10 | 10 | 64 | 64 | 64 | 64 |
| 05/06/2026 | 11:00:00 | 126 | 56 | 10:29:05 | 55 | 10:59:00 | 55 | 94 | 10:00:03 | 92 | 10:23:01 | 93.9 | 0 | 5.3 | 359 | 13 | 64 | 64 | 64 | 64 |
| 05/06/2026 | 12:00:00 | 126 | 55 | 11:52:05 | 54 | 11:00:01 | 55 | 95 | 11:03:03 | 92 | 11:35:00 | 92.3 | 0 | 6.0 | 10 | 18 | 64 | 64 | 64 | 64 |
| 05/06/2026 | 13:00:00 | 126 | 56 | 12:59:01 | 55 | 12:01:04 | 56 | 94 | 12:34:05 | 91 | 12:56:05 | 91.5 | 0 | 4.4 | 3 | 16 | 64 | 64 | 64 | 64 |
| 05/06/2026 | 14:00:00 | 126 | 57 | 13:09:04 | 55 | 13:57:01 | 55 | 94 | 13:49:01 | 90 | 13:15:05 | 92.6 | 0 | 6.0 | 351 | 13 | 64 | 64 | 64 | 64 |
| 05/06/2026 | 15:00:00 | 126 | 55 | 14:12:05 | 54 | 14:54:03 | 54 | 93 | 14:59:02 | 92 | 14:16:03 | 93.2 | 0.06 | 5.3 | 6 | 5 | 64 | 64 | 64 | 64 |
| 05/06/2026 | 16:00:00 | 126 | 56 | 15:45:01 | 54 | 15:04:05 | 55 | 94 | 15:12:05 | 90 | 15:53:01 | 90.6 | 0.03 | 6.3 | 36 | 20 | 64 | 64 | 64 | 64 |
| 05/06/2026 | 17:00:00 | 126 | 56 | 16:59:05 | 55 | 16:05:04 | 55 | 92 | 16:36:02 | 90 | 16:02:00 | 91.7 | 0 | 5.2 | 32 | 8 | 64 | 64 | 64 | 64 |
| 05/06/2026 | 18:00:00 | 126 | 56 | 17:00:03 | 55 | 17:57:00 | 55 | 92 | 17:46:00 | 90 | 17:03:04 | 91.6 | 0 | 5.0 | 21 | 3 | 64 | 64 | 64 | 64 |
| 05/06/2026 | 19:00:00 | 126 | 55 | 18:00:03 | 55 | 18:53:00 | 55 | 92 | 18:50:03 | 91 | 19:00:00 | 91.3 | 0 | 5.5 | 28 | 0 | 63 | 63 | 64 | 64 |
| 05/06/2026 | 20:00:00 | 126 | 55 | 19:03:00 | 54 | 19:59:01 | 54 | 91 | 19:00:00 | 89 | 19:23:03 | 90.7 | 0 | 6.7 | 31 | 0 | 63 | 63 | 64 | 63 |
| 05/06/2026 | 21:00:00 | 126 | 55 | 20:47:04 | 54 | 20:38:00 | 54 | 92 | 20:12:03 | 88 | 20:48:03 | 89.1 | 0 | 6.0 | 27 | 0 | 63 | 63 | 63 | 63 |
| 05/06/2026 | 22:00:00 | 126 | 55 | 21:01:01 | 54 | 21:55:04 | 54 | 91 | 21:59:01 | 89 | 21:02:01 | 91.2 | 0 | 5.4 | 30 | 0 | 63 | 62 | 63 | 63 |
| 05/06/2026 | 23:00:00 | 126 | 54 | 22:00:01 | 54 | 22:40:00 | 54 | 91 | 22:03:04 | 91 | 22:59:03 | 90.6 | 0 | 5.4 | 34 | 0 | 62 | 62 | 63 | 63 |
| 05/07/2026 | 0:00:00 | 127 | 54 | 23:19:00 | 54 | 23:56:02 | 54 | 91 | 23:59:04 | 90 | 23:34:03 | 91 | 0 | 4.0 | 27 | 0 | 62 | 62 | 63 | 63 |
| 05/07/2026 | 1:00:00 | 127 | 54 | 0:00:00 | 53 | 0:40:01 | 53 | 93 | 0:59:05 | 91 | 0:21:05 | 92.5 | 0 | 3.0 | 13 | 0 | 62 | 62 | 63 | 62 |
| 05/07/2026 | 2:00:00 | 127 | 53 | 1:01:04 | 53 | 1:58:04 | 53 | 93 | 1:09:04 | 92 | 1:52:03 | 91.8 | 0 | 3.5 | 11 | 0 | 62 | 62 | 62 | 62 |
| 05/07/2026 | 3:00:00 | 127 | 53 | 2:01:04 | 53 | 2:19:03 | 53 | 92 | 2:36:04 | 91 | 2:18:02 | 91.8 | 0 | 2.7 | 0 | 0 | 62 | 61 | 62 | 62 |
| 05/07/2026 | 4:00:00 | 127 | 53 | 3:00:02 | 52 | 3:59:05 | 52 | 93 | 3:59:00 | 91 | 3:21:04 | 93.1 | 0 | 2.7 | 6 | 0 | 61 | 61 | 62 | 62 |
| 05/07/2026 | 5:00:00 | 127 | 52 | 4:02:05 | 51 | 4:58:01 | 51 | 95 | 5:00:00 | 93 | 4:04:01 | 94.8 | 0 | 2.4 | 342 | 0 | 61 | 61 | 62 | 62 |
| 05/07/2026 | 6:00:00 | 127 | 52 | 5:58:04 | 51 | 5:18:02 | 52 | 95 | 5:29:02 | 93 | 6:00:00 | 92.7 | 0 | 2.0 | 355 | 4 | 61 | 61 | 62 | 62 |
| 05/07/2026 | 7:00:00 | 127 | 55 | 6:57:05 | 52 | 6:01:00 | 55 | 93 | 6:00:00 | 82 | 6:58:04 | 81.7 | 0 | 4.3 | 13 | 20 | 61 | 61 | 62 | 62 |
| 05/07/2026 | 8:00:00 | 127 | 59 | 7:58:03 | 55 | 7:00:03 | 59 | 83 | 7:16:02 | 72 | 7:57:02 | 75.77 | 0 | 5.9 | 23 | 39 | 61 | 61 | 62 | 62 |
| 05/07/2026 | 9:00:00 | 127 | 62 | 8:59:02 | 59 | 8:01:01 | 62 | 76 | 8:00:01 | 66 | 8:49:05 | 66.49 | 0 | 6.5 | 28 | 55 | 61 | 62 | 62 | 62 |
| 05/07/2026 | 10:00:00 | 127 | 63 | 9:45:05 | 61 | 9:11:04 | 63 | 69 | 9:26:03 | 56 | 9:56:04 | 58.61 | 0 | 7.3 | 34 | 69 | 62 | 63 | 62 | 63 |
| 05/07/2026 | 11:00:00 | 127 | 65 | 10:54:03 | 63 | 10:00:00 | 65 | 67 | 10:07:00 | 49 | 10:56:03 | 53.25 | 0 | 5.4 | 14 | 78 | 63 | 64 | 63 | 63 |
| 05/07/2026 | 12:00:00 | 127 | 67 | 11:41:00 | 64 | 11:11:03 | 65 | 62 | 11:21:05 | 45 | 11:03:02 | 48.35 | 0 | 5.6 | 11 | 80 | 65 | 65 | 64 | 64 |
| 05/07/2026 | 13:00:00 | 127 | 68 | 12:44:05 | 65 | 12:01:00 | 67 | 64 | 12:33:01 | 46 | 12:52:04 | 50.31 | 0 | 5.6 | 4 | 81 | 66 | 66 | 65 | 65 |
| 05/07/2026 | 14:00:00 | 127 | 69 | 13:47:00 | 66 | 13:12:04 | 67 | 60 | 13:50:00 | 45 | 13:31:04 | 51.07 | 0 | 5.7 | 8 | 70 | 67 | 67 | 65 | 66 |
| 05/07/2026 | 15:00:00 | 127 | 70 | 14:52:05 | 67 | 14:05:02 | 67 | 58 | 14:17:03 | 43 | 14:55:01 | 48.17 | 0 | 3.5 | 354 | 59 | 67 | 67 | 66 | 66 |
| 05/07/2026 | 16:00:00 | 127 | 70 | 15:24:00 | 67 | 15:00:01 | 69 | 55 | 15:03:04 | 43 | 15:52:03 | 50.73 | 0 | 3.6 | 347 | 47 | 67 | 67 | 66 | 66 |
| 05/07/2026 | 17:00:00 | 127 | 69 | 16:31:05 | 68 | 16:59:04 | 68 | 57 | 16:02:03 | 42 | 16:32:04 | 48.96 | 0 | 2.8 | 346 | 24 | 67 | 67 | 66 | 66 |
| 05/07/2026 | 18:00:00 | 127 | 68 | 17:05:02 | 65 | 17:59:01 | 65 | 63 | 17:59:05 | 44 | 17:01:03 | 61.41 | 0 | 2.1 | 321 | 10 | 67 | 67 | 66 | 66 |
| 05/07/2026 | 19:00:00 | 127 | 65 | 18:00:00 | 61 | 19:00:00 | 61 | 74 | 19:00:00 | 57 | 18:01:01 | 74.39 | 0 | 2.0 | 326 | 2 | 66 | 66 | 66 | 66 |
| 05/07/2026 | 20:00:00 | 127 | 61 | 19:00:00 | 56 | 19:57:05 | 57 | 86 | 19:27:01 | 73 | 19:03:01 | 84.7 | 0 | 0.4 | 215 | 0 | 66 | 65 | 66 | 66 |
| 05/07/2026 | 21:00:00 | 127 | 57 | 20:01:00 | 54 | 20:35:01 | 55 | 92 | 20:59:01 | 85 | 20:00:00 | 91.8 | 0 | 0.6 | 110 | 0 | 65 | 65 | 65 | 65 |
| 05/07/2026 | 22:00:00 | 127 | 55 | 21:00:01 | 53 | 21:59:03 | 53 | 94 | 21:59:05 | 92 | 21:00:05 | 93.9 | 0 | 0.5 | 185 | 0 | 64 | 64 | 65 | 65 |
| 05/07/2026 | 23:00:00 | 127 | 53 | 22:00:05 | 52 | 22:59:05 | 52 | 95 | 22:43:04 | 94 | 23:00:00 | 93.8 | 0 | 0.5 | 32 | 0 | 64 | 64 | 64 | 64 |
| 05/08/2026 | 0:00:00 | 128 | 52 | 23:22:04 | 51 | 23:00:05 | 51 | 96 | 23:59:04 | 94 | 23:00:02 | 95.6 | 0 | 0.2 | 90 | 0 | 63 | 63 | 64 | 64 |
| 05/08/2026 | 1:00:00 | 128 | 52 | 0:01:04 | 50 | 0:28:04 | 51 | 97 | 0:55:05 | 95 | 0:06:04 | 96.6 | 0 | 0.3 | 30 | 0 | 63 | 63 | 64 | 63 |
| 05/08/2026 | 2:00:00 | 128 | 51 | 1:04:02 | 48 | 1:59:03 | 48 | 97 | 1:40:00 | 96 | 1:31:03 | 96.6 | 0 | 0.2 | 8 | 0 | 62 | 62 | 63 | 63 |
| 05/08/2026 | 3:00:00 | 128 | 49 | 2:30:00 | 48 | 2:54:05 | 48 | 98 | 2:30:01 | 97 | 2:35:00 | 97.5 | 0 | 0.6 | 238 | 0 | 62 | 62 | 63 | 63 |
| 05/08/2026 | 4:00:00 | 128 | 48 | 3:05:02 | 46 | 3:38:03 | 47 | 98 | 3:55:01 | 97 | 3:08:04 | 97.7 | 0 | 0.6 | 30 | 0 | 61 | 61 | 63 | 62 |
| 05/08/2026 | 5:00:00 | 128 | 47 | 4:08:01 | 45 | 4:50:04 | 46 | 99 | 4:59:05 | 98 | 4:00:01 | 98.8 | 0 | 0.3 | 74 | 0 | 61 | 61 | 62 | 62 |
| 05/08/2026 | 6:00:00 | 128 | 50 | 5:59:05 | 46 | 5:00:01 | 50 | 100 | 5:41:00 | 98 | 5:55:00 | 98.5 | 0 | 0.1 | 90 | 6 | 61 | 60 | 62 | 62 |
| 05/08/2026 | 7:00:00 | 128 | 60 | 6:59:04 | 50 | 6:00:00 | 60 | 99 | 6:03:01 | 74 | 6:58:00 | 74.74 | 0 | 1.2 | 109 | 24 | 60 | 60 | 61 | 61 |
| 05/08/2026 | 8:00:00 | 128 | 62 | 7:52:05 | 60 | 7:09:04 | 62 | 76 | 7:01:05 | 63 | 7:53:02 | 63.97 | 0 | 5.1 | 125 | 34 | 61 | 61 | 61 | 62 |
| 05/08/2026 | 9:00:00 | 128 | 65 | 8:59:03 | 62 | 8:00:01 | 65 | 66 | 8:00:04 | 59 | 8:29:03 | 61.41 | 0 | 5.2 | 140 | 42 | 62 | 62 | 62 | 62 |
| 05/08/2026 | 10:00:00 | 128 | 69 | 10:00:00 | 65 | 9:02:01 | 69 | 63 | 9:06:05 | 50 | 9:51:01 | 53.13 | 0 | 6.8 | 143 | 70 | 63 | 64 | 62 | 63 |
| 05/08/2026 | 11:00:00 | 128 | 71 | 10:30:03 | 69 | 10:03:03 | 70 | 55 | 10:00:04 | 44 | 10:30:05 | 48.08 | 0 | 6.9 | 144 | 79 | 64 | 65 | 63 | 64 |
| 05/08/2026 | 12:00:00 | 128 | 74 | 11:47:02 | 70 | 11:01:01 | 72 | 55 | 11:30:03 | 43 | 11:44:00 | 45.92 | 0 | 6.1 | 158 | 78 | 66 | 67 | 65 | 65 |
| 05/08/2026 | 13:00:00 | 128 | 74 | 12:59:00 | 71 | 12:04:02 | 74 | 54 | 12:06:04 | 41 | 12:41:05 | 46.69 | 0 | 5.4 | 131 | 76 | 68 | 68 | 66 | 66 |
| 05/08/2026 | 14:00:00 | 128 | 75 | 13:20:05 | 73 | 13:29:03 | 74 | 51 | 13:36:04 | 42 | 13:21:01 | 48.11 | 0 | 7.1 | 160 | 80 | 68 | 69 | 66 | 67 |
| 05/08/2026 | 15:00:00 | 128 | 75 | 14:15:04 | 74 | 14:02:00 | 74 | 53 | 14:59:02 | 44 | 14:25:05 | 48.79 | 0 | 7.6 | 190 | 67 | 69 | 69 | 67 | 67 |
| 05/08/2026 | 16:00:00 | 128 | 75 | 15:59:03 | 73 | 15:12:00 | 75 | 54 | 15:06:03 | 43 | 15:28:02 | 50.1 | 0 | 7.2 | 173 | 48 | 69 | 69 | 67 | 68 |
| 05/08/2026 | 17:00:00 | 128 | 75 | 16:00:00 | 72 | 16:55:02 | 73 | 56 | 17:00:00 | 49 | 16:01:03 | 55.97 | 0 | 7.3 | 182 | 34 | 69 | 69 | 67 | 67 |
| 05/08/2026 | 18:00:00 | 128 | 73 | 17:01:03 | 70 | 17:55:04 | 70 | 61 | 17:58:01 | 54 | 17:01:05 | 60.27 | 0 | 7.6 | 180 | 16 | 69 | 68 | 67 | 67 |
| 05/08/2026 | 19:00:00 | 128 | 70 | 18:00:02 | 64 | 18:59:04 | 64 | 74 | 18:57:01 | 60 | 18:02:03 | 72.61 | 0 | 3.5 | 190 | 3 | 68 | 67 | 67 | 67 |
| 05/08/2026 | 20:00:00 | 128 | 64 | 19:00:00 | 61 | 19:59:05 | 61 | 79 | 20:00:00 | 72 | 19:02:00 | 79.36 | 0 | 2.1 | 146 | 0 | 67 | 67 | 67 | 66 |
| Average | 62.49 | 60.14 | 61.29 | 74.25 | 66.74 | 70.34 | 0 | 4.61 | 20.57 | 64.49 | 64.5 | 64.52 | 64.52 | |||||||
| Total | 0.79 |